sensor_id;sensor_type;location;lat;lon;timestamp;temperature;humidity
20504;DHT22;10410;51.046;6.980;2022-07-06T00:01:54;15.30;99.90
20504;DHT22;10410;51.046;6.980;2022-07-06T00:08:54;15.20;99.90
20504;DHT22;10410;51.046;6.980;2022-07-06T00:15:55;14.90;99.90
20504;DHT22;10410;51.046;6.980;2022-07-06T00:22:56;14.80;99.90
20504;DHT22;10410;51.046;6.980;2022-07-06T00:29:56;14.60;99.90
20504;DHT22;10410;51.046;6.980;2022-07-06T00:36:57;14.40;99.90
20504;DHT22;10410;51.046;6.980;2022-07-06T00:43:57;14.30;99.90
20504;DHT22;10410;51.046;6.980;2022-07-06T00:50:58;14.20;99.90
20504;DHT22;10410;51.046;6.980;2022-07-06T00:58:01;14.10;99.90
20504;DHT22;10410;51.046;6.980;2022-07-06T01:05:07;14.00;99.90
20504;DHT22;10410;51.046;6.980;2022-07-06T01:12:08;13.90;99.90
20504;DHT22;10410;51.046;6.980;2022-07-06T01:19:09;13.80;99.90
20504;DHT22;10410;51.046;6.980;2022-07-06T01:26:15;13.80;99.90
20504;DHT22;10410;51.046;6.980;2022-07-06T01:33:16;13.60;99.90
20504;DHT22;10410;51.046;6.980;2022-07-06T01:40:17;13.60;99.90
20504;DHT22;10410;51.046;6.980;2022-07-06T01:47:17;13.50;99.90
20504;DHT22;10410;51.046;6.980;2022-07-06T01:54:18;13.40;99.90
20504;DHT22;10410;51.046;6.980;2022-07-06T02:01:20;13.20;99.90
20504;DHT22;10410;51.046;6.980;2022-07-06T02:08:21;13.10;99.90
20504;DHT22;10410;51.046;6.980;2022-07-06T02:15:22;12.90;99.90
20504;DHT22;10410;51.046;6.980;2022-07-06T02:22:23;12.80;99.90
20504;DHT22;10410;51.046;6.980;2022-07-06T02:29:23;12.70;99.90
20504;DHT22;10410;51.046;6.980;2022-07-06T02:36:24;12.60;99.90
20504;DHT22;10410;51.046;6.980;2022-07-06T02:43:24;12.60;99.90
20504;DHT22;10410;51.046;6.980;2022-07-06T02:50:25;12.50;99.90
20504;DHT22;10410;51.046;6.980;2022-07-06T02:57:27;12.40;99.90
20504;DHT22;10410;51.046;6.980;2022-07-06T03:04:29;12.40;99.90
20504;DHT22;10410;51.046;6.980;2022-07-06T03:11:30;12.30;99.90
20504;DHT22;10410;51.046;6.980;2022-07-06T03:18:31;12.20;99.90
20504;DHT22;10410;51.046;6.980;2022-07-06T03:25:33;12.10;99.90
20504;DHT22;10410;51.046;6.980;2022-07-06T03:32:33;12.00;99.90
20504;DHT22;10410;51.046;6.980;2022-07-06T03:39:37;12.00;99.90
20504;DHT22;10410;51.046;6.980;2022-07-06T03:46:39;11.90;99.90
20504;DHT22;10410;51.046;6.980;2022-07-06T03:53:39;11.90;99.90
20504;DHT22;10410;51.046;6.980;2022-07-06T04:00:41;11.80;99.90
20504;DHT22;10410;51.046;6.980;2022-07-06T04:07:48;11.80;99.90
20504;DHT22;10410;51.046;6.980;2022-07-06T04:14:49;11.70;99.90
20504;DHT22;10410;51.046;6.980;2022-07-06T04:21:50;11.80;99.90
20504;DHT22;10410;51.046;6.980;2022-07-06T04:28:52;11.80;99.90
20504;DHT22;10410;51.046;6.980;2022-07-06T04:35:53;11.90;99.90
20504;DHT22;10410;51.046;6.980;2022-07-06T04:42:58;12.00;99.90
20504;DHT22;10410;51.046;6.980;2022-07-06T04:50:02;12.10;99.90
20504;DHT22;10410;51.046;6.980;2022-07-06T04:57:03;12.10;99.90
20504;DHT22;10410;51.046;6.980;2022-07-06T05:04:12;12.20;99.90
20504;DHT22;10410;51.046;6.980;2022-07-06T05:11:13;12.30;99.90
20504;DHT22;10410;51.046;6.980;2022-07-06T05:18:14;12.50;99.90
20504;DHT22;10410;51.046;6.980;2022-07-06T05:25:16;12.60;99.90
20504;DHT22;10410;51.046;6.980;2022-07-06T05:32:17;12.80;99.90
20504;DHT22;10410;51.046;6.980;2022-07-06T05:39:18;13.00;99.90
20504;DHT22;10410;51.046;6.980;2022-07-06T05:46:21;13.20;99.90
20504;DHT22;10410;51.046;6.980;2022-07-06T05:53:23;13.20;99.90
20504;DHT22;10410;51.046;6.980;2022-07-06T06:00:27;13.40;99.90
20504;DHT22;10410;51.046;6.980;2022-07-06T06:07:34;13.70;99.90
20504;DHT22;10410;51.046;6.980;2022-07-06T06:14:35;14.10;99.90
20504;DHT22;10410;51.046;6.980;2022-07-06T06:21:36;14.30;99.90
20504;DHT22;10410;51.046;6.980;2022-07-06T06:28:37;14.50;99.90
20504;DHT22;10410;51.046;6.980;2022-07-06T06:35:42;14.60;99.90
20504;DHT22;10410;51.046;6.980;2022-07-06T06:42:43;14.70;99.90
20504;DHT22;10410;51.046;6.980;2022-07-06T06:49:46;14.80;99.90
20504;DHT22;10410;51.046;6.980;2022-07-06T06:56:47;14.90;99.90
20504;DHT22;10410;51.046;6.980;2022-07-06T07:03:48;15.10;99.90
20504;DHT22;10410;51.046;6.980;2022-07-06T07:10:49;15.40;99.90
20504;DHT22;10410;51.046;6.980;2022-07-06T07:17:50;15.60;99.90
20504;DHT22;10410;51.046;6.980;2022-07-06T07:24:50;15.90;99.90
20504;DHT22;10410;51.046;6.980;2022-07-06T07:31:51;16.10;99.90
20504;DHT22;10410;51.046;6.980;2022-07-06T07:38:52;16.30;99.90
20504;DHT22;10410;51.046;6.980;2022-07-06T07:45:52;16.40;99.90
20504;DHT22;10410;51.046;6.980;2022-07-06T07:52:53;16.30;99.90
20504;DHT22;10410;51.046;6.980;2022-07-06T07:59:53;16.10;99.90
20504;DHT22;10410;51.046;6.980;2022-07-06T08:06:53;16.10;99.90
20504;DHT22;10410;51.046;6.980;2022-07-06T08:14:01;16.10;99.90
20504;DHT22;10410;51.046;6.980;2022-07-06T08:21:02;16.20;99.90
20504;DHT22;10410;51.046;6.980;2022-07-06T08:28:23;16.20;99.90
20504;DHT22;10410;51.046;6.980;2022-07-06T08:35:24;16.20;99.90
20504;DHT22;10410;51.046;6.980;2022-07-06T08:42:30;16.40;99.90
20504;DHT22;10410;51.046;6.980;2022-07-06T08:49:31;16.50;99.90
20504;DHT22;10410;51.046;6.980;2022-07-06T08:56:32;16.90;99.90
20504;DHT22;10410;51.046;6.980;2022-07-06T09:03:33;16.90;99.90
20504;DHT22;10410;51.046;6.980;2022-07-06T09:10:34;17.00;99.90
20504;DHT22;10410;51.046;6.980;2022-07-06T09:17:38;17.20;99.90
20504;DHT22;10410;51.046;6.980;2022-07-06T09:24:42;17.60;99.90
20504;DHT22;10410;51.046;6.980;2022-07-06T09:31:56;17.90;99.90
20504;DHT22;10410;51.046;6.980;2022-07-06T09:38:57;17.90;99.90
20504;DHT22;10410;51.046;6.980;2022-07-06T09:45:57;17.90;99.90
20504;DHT22;10410;51.046;6.980;2022-07-06T09:52:58;17.90;99.90
20504;DHT22;10410;51.046;6.980;2022-07-06T09:59:58;17.80;99.90
20504;DHT22;10410;51.046;6.980;2022-07-06T10:06:59;17.90;99.90
20504;DHT22;10410;51.046;6.980;2022-07-06T10:14:01;17.70;99.90
20504;DHT22;10410;51.046;6.980;2022-07-06T10:21:03;17.50;99.90
20504;DHT22;10410;51.046;6.980;2022-07-06T10:28:04;17.60;99.90
20504;DHT22;10410;51.046;6.980;2022-07-06T10:35:15;17.60;99.90
20504;DHT22;10410;51.046;6.980;2022-07-06T10:43:17;17.80;99.90
20504;DHT22;10410;51.046;6.980;2022-07-06T10:50:01;18.10;99.90
20504;DHT22;10410;51.046;6.980;2022-07-06T10:57:09;18.40;99.90
20504;DHT22;10410;51.046;6.980;2022-07-06T11:04:10;18.70;99.90
20504;DHT22;10410;51.046;6.980;2022-07-06T11:18:39;19.10;97.50
20504;DHT22;10410;51.046;6.980;2022-07-06T11:25:43;19.50;96.80
20504;DHT22;10410;51.046;6.980;2022-07-06T11:32:44;19.70;94.80
20504;DHT22;10410;51.046;6.980;2022-07-06T11:39:46;19.80;94.20
20504;DHT22;10410;51.046;6.980;2022-07-06T11:46:47;20.00;94.90
20504;DHT22;10410;51.046;6.980;2022-07-06T11:53:54;20.30;92.50
20504;DHT22;10410;51.046;6.980;2022-07-06T12:01:09;20.30;92.80
20504;DHT22;10410;51.046;6.980;2022-07-06T12:08:09;20.40;92.70
20504;DHT22;10410;51.046;6.980;2022-07-06T12:15:09;20.30;91.40
20504;DHT22;10410;51.046;6.980;2022-07-06T12:22:11;20.40;91.40
20504;DHT22;10410;51.046;6.980;2022-07-06T12:29:12;20.40;91.70
20504;DHT22;10410;51.046;6.980;2022-07-06T12:36:14;20.40;91.80
20504;DHT22;10410;51.046;6.980;2022-07-06T12:43:35;20.70;90.40
20504;DHT22;10410;51.046;6.980;2022-07-06T12:50:39;20.80;89.50
20504;DHT22;10410;51.046;6.980;2022-07-06T12:57:45;20.90;88.70
20504;DHT22;10410;51.046;6.980;2022-07-06T13:05:01;20.80;88.30
20504;DHT22;10410;51.046;6.980;2022-07-06T13:12:02;21.00;87.20
20504;DHT22;10410;51.046;6.980;2022-07-06T13:19:03;21.40;87.40
20504;DHT22;10410;51.046;6.980;2022-07-06T13:26:04;21.50;85.60
20504;DHT22;10410;51.046;6.980;2022-07-06T13:33:04;21.40;86.20
20504;DHT22;10410;51.046;6.980;2022-07-06T13:40:05;21.40;86.20
20504;DHT22;10410;51.046;6.980;2022-07-06T13:47:06;21.60;86.40
20504;DHT22;10410;51.046;6.980;2022-07-06T13:54:07;21.70;85.20
20504;DHT22;10410;51.046;6.980;2022-07-06T14:01:08;22.20;85.50
20504;DHT22;10410;51.046;6.980;2022-07-06T14:08:09;22.40;81.90
20504;DHT22;10410;51.046;6.980;2022-07-06T14:15:09;23.00;81.60
20504;DHT22;10410;51.046;6.980;2022-07-06T14:22:10;23.60;81.30
20504;DHT22;10410;51.046;6.980;2022-07-06T14:29:10;23.60;79.40
20504;DHT22;10410;51.046;6.980;2022-07-06T14:36:11;23.80;75.70
20504;DHT22;10410;51.046;6.980;2022-07-06T14:43:12;23.90;77.40
20504;DHT22;10410;51.046;6.980;2022-07-06T14:50:20;24.10;73.90
20504;DHT22;10410;51.046;6.980;2022-07-06T14:57:23;24.00;74.10
20504;DHT22;10410;51.046;6.980;2022-07-06T15:04:24;23.60;74.20
20504;DHT22;10410;51.046;6.980;2022-07-06T15:11:24;23.60;74.40
20504;DHT22;10410;51.046;6.980;2022-07-06T15:18:25;23.60;72.40
20504;DHT22;10410;51.046;6.980;2022-07-06T15:25:26;23.20;72.50
20504;DHT22;10410;51.046;6.980;2022-07-06T15:32:27;22.80;73.80
20504;DHT22;10410;51.046;6.980;2022-07-06T15:39:27;23.10;74.10
20504;DHT22;10410;51.046;6.980;2022-07-06T15:46:27;23.20;73.00
20504;DHT22;10410;51.046;6.980;2022-07-06T15:53:28;23.20;73.30
20504;DHT22;10410;51.046;6.980;2022-07-06T16:00:29;23.00;72.50
20504;DHT22;10410;51.046;6.980;2022-07-06T16:07:30;22.50;74.50
20504;DHT22;10410;51.046;6.980;2022-07-06T16:14:50;22.90;73.70
20504;DHT22;10410;51.046;6.980;2022-07-06T16:21:50;23.50;72.50
20504;DHT22;10410;51.046;6.980;2022-07-06T16:28:51;23.20;72.10
20504;DHT22;10410;51.046;6.980;2022-07-06T16:35:52;23.40;73.00
20504;DHT22;10410;51.046;6.980;2022-07-06T16:42:59;23.80;71.50
20504;DHT22;10410;51.046;6.980;2022-07-06T16:49:59;23.90;71.50
20504;DHT22;10410;51.046;6.980;2022-07-06T16:56:59;23.80;70.30
20504;DHT22;10410;51.046;6.980;2022-07-06T17:04:00;23.70;71.40
20504;DHT22;10410;51.046;6.980;2022-07-06T17:11:00;23.70;70.50
20504;DHT22;10410;51.046;6.980;2022-07-06T17:18:01;23.60;71.90
20504;DHT22;10410;51.046;6.980;2022-07-06T17:25:02;23.80;71.90
20504;DHT22;10410;51.046;6.980;2022-07-06T17:32:04;23.40;71.90
20504;DHT22;10410;51.046;6.980;2022-07-06T17:39:10;22.90;72.60
20504;DHT22;10410;51.046;6.980;2022-07-06T17:46:11;22.60;73.50
20504;DHT22;10410;51.046;6.980;2022-07-06T17:53:11;22.40;74.30
20504;DHT22;10410;51.046;6.980;2022-07-06T18:00:12;21.90;75.00
20504;DHT22;10410;51.046;6.980;2022-07-06T18:07:13;21.70;75.90
20504;DHT22;10410;51.046;6.980;2022-07-06T18:14:14;21.60;76.80
20504;DHT22;10410;51.046;6.980;2022-07-06T18:21:14;21.50;77.40
20504;DHT22;10410;51.046;6.980;2022-07-06T18:28:15;21.50;77.80
20504;DHT22;10410;51.046;6.980;2022-07-06T18:35:18;21.50;78.40
20504;DHT22;10410;51.046;6.980;2022-07-06T18:42:18;21.40;78.50
20504;DHT22;10410;51.046;6.980;2022-07-06T18:49:19;21.20;78.90
20504;DHT22;10410;51.046;6.980;2022-07-06T18:56:19;21.10;79.40
20504;DHT22;10410;51.046;6.980;2022-07-06T19:03:20;21.00;80.00
20504;DHT22;10410;51.046;6.980;2022-07-06T19:10:21;20.90;80.30
20504;DHT22;10410;51.046;6.980;2022-07-06T19:17:21;20.80;80.70
20504;DHT22;10410;51.046;6.980;2022-07-06T19:24:21;20.70;81.20
20504;DHT22;10410;51.046;6.980;2022-07-06T19:31:22;20.70;81.90
20504;DHT22;10410;51.046;6.980;2022-07-06T19:38:22;20.60;82.30
20504;DHT22;10410;51.046;6.980;2022-07-06T19:45:23;20.60;82.70
20504;DHT22;10410;51.046;6.980;2022-07-06T19:52:23;20.40;83.30
20504;DHT22;10410;51.046;6.980;2022-07-06T19:59:24;20.30;83.70
20504;DHT22;10410;51.046;6.980;2022-07-06T20:06:24;20.20;84.20
20504;DHT22;10410;51.046;6.980;2022-07-06T20:13:25;20.10;84.70
20504;DHT22;10410;51.046;6.980;2022-07-06T20:20:26;20.10;85.00
20504;DHT22;10410;51.046;6.980;2022-07-06T20:27:27;20.10;85.40
20504;DHT22;10410;51.046;6.980;2022-07-06T20:34:27;20.10;85.80
20504;DHT22;10410;51.046;6.980;2022-07-06T20:41:28;20.10;86.30
20504;DHT22;10410;51.046;6.980;2022-07-06T20:48:29;20.00;86.70
20504;DHT22;10410;51.046;6.980;2022-07-06T20:55:29;19.90;87.10
20504;DHT22;10410;51.046;6.980;2022-07-06T21:02:30;19.90;87.50
20504;DHT22;10410;51.046;6.980;2022-07-06T21:09:30;19.90;87.80
20504;DHT22;10410;51.046;6.980;2022-07-06T21:16:31;19.80;88.40
20504;DHT22;10410;51.046;6.980;2022-07-06T21:23:32;19.70;88.90
20504;DHT22;10410;51.046;6.980;2022-07-06T21:30:35;19.70;89.10
20504;DHT22;10410;51.046;6.980;2022-07-06T21:37:36;19.70;89.30
20504;DHT22;10410;51.046;6.980;2022-07-06T21:44:37;19.70;89.90
20504;DHT22;10410;51.046;6.980;2022-07-06T21:51:37;19.60;90.00
20504;DHT22;10410;51.046;6.980;2022-07-06T21:58:38;19.60;90.40
20504;DHT22;10410;51.046;6.980;2022-07-06T22:05:39;19.60;90.40
20504;DHT22;10410;51.046;6.980;2022-07-06T22:12:41;19.60;90.80
20504;DHT22;10410;51.046;6.980;2022-07-06T22:19:41;19.60;90.90
20504;DHT22;10410;51.046;6.980;2022-07-06T22:26:42;19.60;91.10
20504;DHT22;10410;51.046;6.980;2022-07-06T22:33:42;19.60;91.40
20504;DHT22;10410;51.046;6.980;2022-07-06T22:40:43;19.60;91.60
20504;DHT22;10410;51.046;6.980;2022-07-06T22:48:01;19.60;91.80
20504;DHT22;10410;51.046;6.980;2022-07-06T22:55:02;19.50;92.00
20504;DHT22;10410;51.046;6.980;2022-07-06T23:02:02;19.40;92.30
20504;DHT22;10410;51.046;6.980;2022-07-06T23:09:03;19.30;92.70
20504;DHT22;10410;51.046;6.980;2022-07-06T23:16:03;19.30;92.90
20504;DHT22;10410;51.046;6.980;2022-07-06T23:23:05;19.20;93.20
20504;DHT22;10410;51.046;6.980;2022-07-06T23:30:06;19.20;93.60
20504;DHT22;10410;51.046;6.980;2022-07-06T23:37:06;19.10;93.70
20504;DHT22;10410;51.046;6.980;2022-07-06T23:44:06;19.10;94.00
20504;DHT22;10410;51.046;6.980;2022-07-06T23:51:07;19.00;94.60
20504;DHT22;10410;51.046;6.980;2022-07-06T23:58:08;19.00;95.00
